Time;durP1;ratioP1;P1;durP2;ratioP2;P2;SDS_P1;SDS_P2;PMS_P1;PMS_P2;Temp;Humidity;BMP_temperature;BMP_pressure;BME280_temperature;BME280_humidity;BME280_pressure;Samples;Min_cycle;Max_cycle;Signal;HPM_P1;HPM_P2
2022/07/08 00:01:21;;;;;;;;;;;;;;;15.98;100.00;90968.22;5011476;28;19913;-73
2022/07/08 00:03:47;;;;;;;;;;;;;;;15.87;100.00;90966.00;5011050;28;19917;-73
2022/07/08 00:06:12;;;;;;;;;;;;;;;15.77;100.00;90963.78;5011053;28;19918;-73
2022/07/08 00:08:37;;;;;;;;;;;;;;;15.70;100.00;90965.47;5013282;28;19920;-73
2022/07/08 00:11:03;;;;;;;;;;;;;;;15.64;100.00;90954.22;5015102;28;19913;-73
2022/07/08 00:13:28;;;;;;;;;;;;;;;15.65;100.00;90952.31;5014723;28;19949;-73
2022/07/08 00:15:54;;;;;;;;;;;;;;;15.61;100.00;90957.53;5014770;28;19914;-72
2022/07/08 00:18:19;;;;;;;;;;;;;;;15.64;100.00;90953.44;5014728;28;19917;-73
2022/07/08 00:20:45;;;;;;;;;;;;;;;15.73;100.00;90937.97;5014917;28;19914;-73
2022/07/08 00:23:10;;;;;;;;;;;;;;;15.75;100.00;90943.78;5014563;28;19918;-71
2022/07/08 00:25:36;;;;;;;;;;;;;;;15.72;100.00;90947.94;5014547;28;20280;-73
2022/07/08 00:28:01;;;;;;;;;;;;;;;15.74;100.00;90952.94;5014651;28;19948;-72
2022/07/08 00:30:26;;;;;;;;;;;;;;;15.73;100.00;90948.72;5014519;28;20040;-72
2022/07/08 00:32:52;;;;;;;;;;;;;;;15.73;100.00;90946.81;5014442;28;19968;-73
2022/07/08 00:35:17;;;;;;;;;;;;;;;15.66;100.00;90951.97;4996878;28;20375;-72
2022/07/08 00:37:42;;;;;;;;;;;;;;;15.55;100.00;90951.63;4996816;28;19925;-72
2022/07/08 00:40:08;;;;;;;;;;;;;;;15.48;100.00;90956.78;5014339;28;19920;-73
2022/07/08 00:42:34;;;;;;;;;;;;;;;15.45;100.00;90959.34;5014163;28;19917;-73
2022/07/08 00:44:59;;;;;;;;;;;;;;;15.35;100.00;90965.94;5014224;28;19987;-73
2022/07/08 00:47:24;;;;;;;;;;;;;;;15.30;100.00;90971.50;5014283;28;19913;-73
2022/07/08 00:49:50;;;;;;;;;;;;;;;15.22;100.00;90973.19;5014188;28;20009;-73
2022/07/08 00:52:16;;;;;;;;;;;;;;;15.22;100.00;90973.19;5013985;28;19914;-72
2022/07/08 00:54:41;;;;;;;;;;;;;;;15.07;100.00;90970.41;5014065;28;19920;-72
2022/07/08 00:57:07;;;;;;;;;;;;;;;14.90;100.00;90961.47;5014018;28;19913;-71
2022/07/08 00:59:32;;;;;;;;;;;;;;;14.83;100.00;90965.78;5014166;28;19917;-71
2022/07/08 01:01:58;;;;;;;;;;;;;;;14.74;100.00;90957.88;5013767;28;20288;-73
2022/07/08 01:04:24;;;;;;;;;;;;;;;14.66;100.00;90964.09;5013586;28;20408;-73
2022/07/08 01:06:49;;;;;;;;;;;;;;;14.60;100.00;90960.84;5013763;28;19921;-72
2022/07/08 01:09:15;;;;;;;;;;;;;;;14.56;100.00;90962.63;5013776;28;19913;-72
2022/07/08 01:11:42;;;;;;;;;;;;;;;14.49;100.00;90965.06;4996151;28;19913;-73
2022/07/08 01:14:07;;;;;;;;;;;;;;;14.51;100.00;90962.84;5013601;28;19939;-72
2022/07/08 01:16:33;;;;;;;;;;;;;;;14.50;100.00;90971.97;5013666;28;20391;-71
2022/07/08 01:18:58;;;;;;;;;;;;;;;14.52;100.00;90972.44;5013336;28;20660;-71
2022/07/08 01:21:23;;;;;;;;;;;;;;;14.54;100.00;90959.53;5013218;28;19933;-73
2022/07/08 01:23:49;;;;;;;;;;;;;;;14.56;100.00;90957.28;5013385;28;20024;-72
2022/07/08 01:26:14;;;;;;;;;;;;;;;14.55;100.00;90954.94;5013345;28;19924;-72
2022/07/08 01:28:41;;;;;;;;;;;;;;;14.56;100.00;90951.94;5013693;28;19913;-73
2022/07/08 01:31:06;;;;;;;;;;;;;;;14.55;100.00;90953.03;5013395;28;19913;-71
2022/07/08 01:33:32;;;;;;;;;;;;;;;14.45;100.00;90958.81;5013179;28;19913;-71
2022/07/08 01:35:57;;;;;;;;;;;;;;;14.43;100.00;90957.56;5013217;28;19914;-71
2022/07/08 01:38:23;;;;;;;;;;;;;;;14.43;100.00;90952.19;5013122;28;19962;-72
2022/07/08 01:40:48;;;;;;;;;;;;;;;14.39;100.00;90960.13;5013170;28;19914;-72
2022/07/08 01:43:13;;;;;;;;;;;;;;;14.44;100.00;90959.94;5013027;28;19917;-73
2022/07/08 01:45:39;;;;;;;;;;;;;;;14.39;100.00;90965.47;5012980;28;19921;-72
2022/07/08 01:48:04;;;;;;;;;;;;;;;14.38;100.00;90963.91;5013027;28;19921;-72
2022/07/08 01:50:30;;;;;;;;;;;;;;;14.37;100.00;90968.47;5012948;28;19920;-72
2022/07/08 01:52:55;;;;;;;;;;;;;;;14.36;100.00;90960.78;5012747;28;20395;-72
2022/07/08 01:55:21;;;;;;;;;;;;;;;14.36;100.00;90960.78;5013107;28;19975;-74
2022/07/08 01:57:46;;;;;;;;;;;;;;;14.36;100.00;90956.22;5012829;28;20442;-72
2022/07/08 02:00:12;;;;;;;;;;;;;;;14.39;100.00;90962.78;4995127;28;19913;-72
2022/07/08 02:02:37;;;;;;;;;;;;;;;14.33;100.00;90953.38;5012662;28;19913;-72
2022/07/08 02:05:02;;;;;;;;;;;;;;;14.40;100.00;90953.66;4994411;28;19917;-72
2022/07/08 02:07:28;;;;;;;;;;;;;;;14.38;100.00;90951.31;5012989;28;20033;-72
2022/07/08 02:09:53;;;;;;;;;;;;;;;14.49;100.00;90951.69;5012571;28;19948;-72
2022/07/08 02:12:18;;;;;;;;;;;;;;;14.46;100.00;90947.00;5012416;28;20435;-72
2022/07/08 02:14:54;;;;;;;;;;;;;;;14.42;100.00;90948.75;5012529;28;19944;-72
2022/07/08 02:17:21;;;;;;;;;;;;;;;14.42;100.00;90948.75;5012577;28;19925;-72
2022/07/08 02:19:46;;;;;;;;;;;;;;;14.38;100.00;90955.88;5012390;28;19917;-72
2022/07/08 02:22:12;;;;;;;;;;;;;;;14.43;100.00;90955.66;5012344;28;20314;-72
2022/07/08 02:24:37;;;;;;;;;;;;;;;14.40;100.00;90942.94;5012330;28;20315;-71
2022/07/08 02:27:03;;;;;;;;;;;;;;;14.41;100.00;90943.72;5012210;28;19940;-71
2022/07/08 02:29:28;;;;;;;;;;;;;;;14.50;100.00;90942.53;5012216;28;20323;-71
2022/07/08 02:31:53;;;;;;;;;;;;;;;14.52;100.00;90947.59;5011199;28;19921;-71
2022/07/08 02:34:19;;;;;;;;;;;;;;;14.58;100.00;90944.34;5012162;28;20326;-71
2022/07/08 02:36:44;;;;;;;;;;;;;;;14.71;100.00;90936.34;5012381;28;20376;-71
2022/07/08 02:39:09;;;;;;;;;;;;;;;14.87;100.00;90940.72;5012102;28;20292;-72
2022/07/08 02:41:38;;;;;;;;;;;;;;;14.96;100.00;90943.25;5012050;28;19917;-72
2022/07/08 02:44:03;;;;;;;;;;;;;;;14.97;100.00;90939.47;5011929;28;19917;-72
2022/07/08 02:46:29;;;;;;;;;;;;;;;15.02;100.00;90938.50;5011842;28;19921;-72
2022/07/08 02:48:54;;;;;;;;;;;;;;;15.01;100.00;90944.97;5012250;28;19925;-72
2022/07/08 02:51:20;;;;;;;;;;;;;;;15.07;100.00;90936.34;5011894;28;19987;-72
2022/07/08 02:53:45;;;;;;;;;;;;;;;15.02;100.00;90939.28;5011874;28;19925;-73
2022/07/08 02:56:10;;;;;;;;;;;;;;;14.90;100.00;90939.25;5011874;28;20362;-73
2022/07/08 02:58:36;;;;;;;;;;;;;;;14.80;100.00;90940.47;5011865;28;20465;-73
2022/07/08 03:01:01;;;;;;;;;;;;;;;14.73;100.00;90939.47;5011852;28;19917;-72
2022/07/08 03:03:26;;;;;;;;;;;;;;;14.67;100.00;90937.00;5011707;28;20350;-72
2022/07/08 03:05:52;;;;;;;;;;;;;;;14.63;100.00;90935.31;5011571;28;20379;-72
2022/07/08 03:08:17;;;;;;;;;;;;;;;14.73;100.00;90928.75;5011767;28;20354;-72
2022/07/08 03:10:42;;;;;;;;;;;;;;;14.78;100.00;90937.34;5011733;28;20004;-72
2022/07/08 03:13:07;;;;;;;;;;;;;;;14.86;100.00;90936.47;5011582;28;19940;-72
2022/07/08 03:15:33;;;;;;;;;;;;;;;14.90;100.00;90931.22;5011704;28;20407;-72
2022/07/08 03:17:59;;;;;;;;;;;;;;;14.99;100.00;90937.25;5011703;28;20673;-72
2022/07/08 03:20:24;;;;;;;;;;;;;;;15.16;100.00;90937.03;5011645;28;19921;-72
2022/07/08 03:22:49;;;;;;;;;;;;;;;15.29;100.00;90935.88;5011582;28;20442;-72
2022/07/08 03:25:14;;;;;;;;;;;;;;;15.44;100.00;90941.69;5011583;28;19970;-72
2022/07/08 03:27:40;;;;;;;;;;;;;;;15.56;100.00;90939.00;5011569;28;20311;-72
2022/07/08 03:30:06;;;;;;;;;;;;;;;15.60;100.00;90934.53;5011610;28;20380;-72
2022/07/08 03:32:31;;;;;;;;;;;;;;;15.67;100.00;90936.66;5011415;28;20405;-72
2022/07/08 03:34:57;;;;;;;;;;;;;;;15.69;100.00;90943.25;5011659;28;19971;-72
2022/07/08 03:37:22;;;;;;;;;;;;;;;15.71;100.00;90946.38;5011300;28;19921;-72
2022/07/08 03:39:48;;;;;;;;;;;;;;;15.77;100.00;90936.94;5158541;23;19921;-73
2022/07/08 03:42:13;;;;;;;;;;;;;;;15.82;100.00;90944.78;5031073;28;19917;-73
2022/07/08 03:44:38;;;;;;;;;;;;;;;15.88;100.00;90951.47;5017120;28;20007;-73
2022/07/08 03:47:04;;;;;;;;;;;;;;;15.98;100.00;90952.13;5034955;28;19944;-73
2022/07/08 03:49:29;;;;;;;;;;;;;;;15.90;100.00;90947.66;5034967;28;19940;-73
2022/07/08 03:51:54;;;;;;;;;;;;;;;15.87;100.00;90954.50;5034906;28;20338;-71
2022/07/08 03:54:20;;;;;;;;;;;;;;;15.87;100.00;90954.50;5034960;28;19913;-72
2022/07/08 03:56:45;;;;;;;;;;;;;;;15.86;100.00;90959.06;5034964;28;19967;-72
2022/07/08 03:59:10;;;;;;;;;;;;;;;15.85;100.00;90962.09;5034655;28;20386;-72
2022/07/08 04:01:36;;;;;;;;;;;;;;;15.80;100.00;90967.72;5034621;28;20064;-72
2022/07/08 04:04:01;;;;;;;;;;;;;;;15.92;100.00;90966.88;5034627;28;19913;-70
2022/07/08 04:06:26;;;;;;;;;;;;;;;15.76;100.00;90970.25;5034425;28;19920;-70
2022/07/08 04:08:52;;;;;;;;;;;;;;;15.55;100.00;90972.28;5034513;28;19960;-70
2022/07/08 04:11:17;;;;;;;;;;;;;;;15.32;100.00;90971.19;5034510;28;19999;-70
2022/07/08 04:13:42;;;;;;;;;;;;;;;15.35;100.00;90975.88;5034516;28;19999;-69
2022/07/08 04:16:12;;;;;;;;;;;;;;;15.27;100.00;90974.88;5034420;28;19952;-69
2022/07/08 04:18:37;;;;;;;;;;;;;;;15.07;100.00;90981.91;5034361;28;19916;-69
2022/07/08 04:21:03;;;;;;;;;;;;;;;15.00;100.00;90984.38;5034368;28;19936;-69
2022/07/08 04:23:28;;;;;;;;;;;;;;;15.03;100.00;90985.59;5034384;28;20367;-71
2022/07/08 04:25:53;;;;;;;;;;;;;;;14.93;100.00;90984.13;5034303;28;19924;-72
2022/07/08 04:28:19;;;;;;;;;;;;;;;14.85;100.00;90980.44;5034143;28;19917;-70
2022/07/08 04:30:44;;;;;;;;;;;;;;;14.83;100.00;90977.31;5034102;28;19928;-71
2022/07/08 04:33:10;;;;;;;;;;;;;;;14.73;100.00;90985.00;5034198;28;20003;-72
2022/07/08 04:35:36;;;;;;;;;;;;;;;14.74;100.00;90984.66;5034117;28;20007;-71
2022/07/08 04:38:01;;;;;;;;;;;;;;;14.83;100.00;90987.22;5034048;28;19913;-72
2022/07/08 04:40:27;;;;;;;;;;;;;;;15.00;100.00;90994.31;5033770;28;19916;-70
2022/07/08 04:42:53;;;;;;;;;;;;;;;15.09;100.00;90987.72;5033991;28;20379;-70
2022/07/08 04:45:18;;;;;;;;;;;;;;;15.13;100.00;90993.16;5033878;28;19913;-69
2022/07/08 04:47:44;;;;;;;;;;;;;;;15.16;100.00;90993.31;5034013;28;19932;-70
2022/07/08 04:50:09;;;;;;;;;;;;;;;15.22;100.00;90999.22;5033910;28;19917;-73
2022/07/08 04:52:35;;;;;;;;;;;;;;;15.20;100.00;91002.25;5033857;28;20306;-73
2022/07/08 04:55:00;;;;;;;;;;;;;;;15.20;100.00;90999.56;5032813;28;19913;-72
2022/07/08 04:57:25;;;;;;;;;;;;;;;15.01;100.00;90993.97;5033843;28;20445;-72
2022/07/08 04:59:51;;;;;;;;;;;;;;;15.05;100.00;91000.22;5015904;28;20296;-73
2022/07/08 05:02:16;;;;;;;;;;;;;;;15.05;100.00;90988.72;5033614;28;20398;-73
2022/07/08 05:04:41;;;;;;;;;;;;;;;15.16;100.00;90987.94;5033658;28;19917;-73
2022/07/08 05:07:07;;;;;;;;;;;;;;;15.50;100.00;90988.63;5033650;28;20012;-73
2022/07/08 05:09:32;;;;;;;;;;;;;;;15.82;100.00;90986.91;5015744;28;20316;-72
2022/07/08 05:11:58;;;;;;;;;;;;;;;16.10;100.00;90984.28;5033545;28;19913;-73
2022/07/08 05:14:23;;;;;;;;;;;;;;;16.25;100.00;90983.53;5033531;28;20329;-73
2022/07/08 05:16:48;;;;;;;;;;;;;;;16.70;100.00;90977.88;5033495;28;19921;-73
2022/07/08 05:19:14;;;;;;;;;;;;;;;16.99;100.00;90973.25;5033354;28;19917;-73
2022/07/08 05:21:39;;;;;;;;;;;;;;;17.21;100.00;90986.09;5033401;28;19917;-73
2022/07/08 05:24:05;;;;;;;;;;;;;;;17.63;100.00;90974.78;5033390;28;19972;-73
2022/07/08 05:26:31;;;;;;;;;;;;;;;18.05;100.00;90976.88;5033193;28;19913;-73
2022/07/08 05:28:56;;;;;;;;;;;;;;;18.38;100.00;90973.72;5033155;28;19926;-73
2022/07/08 05:31:21;;;;;;;;;;;;;;;18.64;100.00;90965.00;5033189;28;19913;-73
2022/07/08 05:33:47;;;;;;;;;;;;;;;18.70;100.00;90969.75;5032946;28;19913;-73
2022/07/08 05:36:12;;;;;;;;;;;;;;;18.51;100.00;90961.66;5033014;28;19917;-73
2022/07/08 05:38:37;;;;;;;;;;;;;;;18.72;100.00;90966.69;5032780;28;19971;-71
2022/07/08 05:41:03;;;;;;;;;;;;;;;18.92;100.00;90960.13;5033027;28;19920;-73
2022/07/08 05:43:28;;;;;;;;;;;;;;;19.15;100.00;90969.00;5032881;28;19917;-73
2022/07/08 05:45:53;;;;;;;;;;;;;;;19.55;100.00;90973.16;5032804;28;19916;-73
2022/07/08 05:48:19;;;;;;;;;;;;;;;20.71;100.00;90974.38;5032761;28;20310;-70
2022/07/08 05:50:45;;;;;;;;;;;;;;;24.22;82.24;90971.16;5032811;28;19940;-73
2022/07/08 05:53:10;;;;;;;;;;;;;;;26.92;63.04;90966.69;5032761;28;20375;-73
2022/07/08 05:55:35;;;;;;;;;;;;;;;29.22;54.25;90968.97;5032717;28;19916;-73
2022/07/08 05:58:01;;;;;;;;;;;;;;;29.61;51.82;90964.63;5032680;28;19913;-71
2022/07/08 06:00:26;;;;;;;;;;;;;;;30.15;50.72;90966.97;5032518;28;19917;-73
2022/07/08 06:02:52;;;;;;;;;;;;;;;29.90;49.89;90967.50;5032592;28;20391;-71
2022/07/08 06:05:17;;;;;;;;;;;;;;;29.44;50.12;90981.00;5032248;28;19945;-73
2022/07/08 06:07:42;;;;;;;;;;;;;;;29.62;50.85;90971.66;5032446;28;19920;-74
2022/07/08 06:10:08;;;;;;;;;;;;;;;31.28;48.00;90971.50;5032369;28;20007;-75
2022/07/08 06:12:33;;;;;;;;;;;;;;;29.60;49.73;90974.06;5032465;28;19913;-74
2022/07/08 06:14:58;;;;;;;;;;;;;;;29.71;50.05;90980.09;5032404;28;20040;-74
2022/07/08 06:17:24;;;;;;;;;;;;;;;29.18;51.30;90976.47;5032313;28;19916;-74
2022/07/08 06:19:49;;;;;;;;;;;;;;;29.17;50.20;90972.19;5014464;28;19917;-73
2022/07/08 06:22:14;;;;;;;;;;;;;;;29.09;51.32;90974.31;5032369;28;19917;-73
2022/07/08 06:24:40;;;;;;;;;;;;;;;29.10;51.32;90981.31;5032243;28;19919;-73
2022/07/08 06:27:05;;;;;;;;;;;;;;;30.67;49.04;90969.59;5032090;28;19917;-74
2022/07/08 06:29:30;;;;;;;;;;;;;;;32.83;44.79;90969.09;5032037;28;19913;-74
2022/07/08 06:31:56;;;;;;;;;;;;;;;34.03;42.01;90969.47;5032140;28;20003;-74
2022/07/08 06:34:21;;;;;;;;;;;;;;;33.34;43.11;90964.94;5031986;28;19918;-74
2022/07/08 06:36:47;;;;;;;;;;;;;;;32.66;44.70;90957.41;5032037;28;19920;-73
2022/07/08 06:39:12;;;;;;;;;;;;;;;30.28;47.95;90951.31;5031789;28;19940;-74
2022/07/08 06:41:37;;;;;;;;;;;;;;;29.18;50.46;90955.31;5032041;28;19979;-72
2022/07/08 06:44:03;;;;;;;;;;;;;;;29.58;51.15;90954.53;5031898;28;19917;-73
2022/07/08 06:46:28;;;;;;;;;;;;;;;30.25;49.83;90941.22;5031790;28;19913;-72
2022/07/08 06:48:54;;;;;;;;;;;;;;;29.33;50.87;90944.06;5031853;28;20016;-71
2022/07/08 06:51:19;;;;;;;;;;;;;;;30.58;48.37;90939.97;5031844;28;20405;-74
2022/07/08 06:56:28;;;;;;;;;;;;;;;32.68;44.77;90939.25;5031684;28;19971;-74
2022/07/08 06:58:54;;;;;;;;;;;;;;;34.50;40.92;90935.28;5031734;28;19920;-71
2022/07/08 07:01:19;;;;;;;;;;;;;;;36.84;38.08;90929.44;5031686;28;19916;-70
2022/07/08 07:03:44;;;;;;;;;;;;;;;37.32;36.69;90928.63;5031673;28;19917;-70
2022/07/08 07:06:09;;;;;;;;;;;;;;;38.34;35.56;90918.75;5031539;28;19995;-70
2022/07/08 07:08:35;;;;;;;;;;;;;;;38.13;35.27;90926.25;5031582;28;19975;-70
2022/07/08 07:11:00;;;;;;;;;;;;;;;37.92;35.46;90924.66;5031672;28;19913;-70
2022/07/08 07:13:25;;;;;;;;;;;;;;;37.08;35.95;90923.06;5031655;28;20616;-70
2022/07/08 07:15:51;;;;;;;;;;;;;;;35.77;37.60;90910.81;5031562;28;20389;-70
2022/07/08 07:18:16;;;;;;;;;;;;;;;35.42;38.42;90908.44;5033105;28;19920;-71
2022/07/08 07:20:41;;;;;;;;;;;;;;;36.62;37.06;90906.78;5035629;28;19917;-71
2022/07/08 07:23:07;;;;;;;;;;;;;;;37.09;36.98;90905.97;5035589;28;19919;-71
2022/07/08 07:25:32;;;;;;;;;;;;;;;37.87;35.30;90916.97;5035516;28;19917;-71
2022/07/08 07:27:58;;;;;;;;;;;;;;;38.49;34.73;90910.38;5035519;28;20378;-70
2022/07/08 07:30:25;;;;;;;;;;;;;;;39.35;33.42;90906.94;5035594;28;19919;-70
2022/07/08 07:32:53;;;;;;;;;;;;;;;38.97;34.01;90908.00;5035393;28;19917;-70
2022/07/08 07:35:18;;;;;;;;;;;;;;;38.32;33.17;90921.25;5035348;28;20310;-71
2022/07/08 07:37:44;;;;;;;;;;;;;;;37.82;33.55;90912.09;5035559;28;19967;-71
2022/07/08 07:40:09;;;;;;;;;;;;;;;37.32;34.05;90914.75;5034999;28;19921;-70
2022/07/08 07:42:34;;;;;;;;;;;;;;;38.06;32.95;90907.22;5035238;28;19916;-70
2022/07/08 07:45:03;;;;;;;;;;;;;;;37.30;33.92;90920.00;5035162;28;20004;-68
2022/07/08 07:47:28;;;;;;;;;;;;;;;34.86;36.74;90912.44;5035106;28;19965;-68
2022/07/08 07:49:53;;;;;;;;;;;;;;;35.24;37.33;90911.22;5035050;28;19920;-68
2022/07/08 07:52:19;;;;;;;;;;;;;;;36.96;34.17;90908.25;5035112;28;20426;-68
2022/07/08 07:54:44;;;;;;;;;;;;;;;38.95;32.97;90919.59;5034996;28;19916;-68
2022/07/08 07:57:10;;;;;;;;;;;;;;;34.96;36.72;90904.94;5035026;28;19919;-68
2022/07/08 07:59:36;;;;;;;;;;;;;;;35.95;37.07;90911.53;5034861;28;19913;-68
2022/07/08 08:02:01;;;;;;;;;;;;;;;33.46;38.19;90908.16;5034935;28;19999;-68
2022/07/08 08:04:26;;;;;;;;;;;;;;;35.74;35.89;90904.22;5034867;28;19916;-68
2022/07/08 08:06:52;;;;;;;;;;;;;;;37.70;34.12;90911.88;5034800;28;20376;-69
2022/07/08 08:09:17;;;;;;;;;;;;;;;38.19;33.39;90916.03;5034699;28;19913;-69
2022/07/08 08:11:43;;;;;;;;;;;;;;;35.55;36.58;90909.03;5034746;28;19917;-68
2022/07/08 08:14:08;;;;;;;;;;;;;;;35.12;36.40;90912.91;5034592;28;19964;-68
2022/07/08 08:16:33;;;;;;;;;;;;;;;36.46;35.53;90910.72;5034621;28;19919;-68
2022/07/08 08:18:58;;;;;;;;;;;;;;;38.10;33.17;90912.56;5034418;28;19992;-68
2022/07/08 08:21:24;;;;;;;;;;;;;;;38.11;32.68;90925.97;5034530;28;19917;-68
2022/07/08 08:23:49;;;;;;;;;;;;;;;38.28;31.79;90917.91;5034496;28;19917;-68
2022/07/08 08:26:15;;;;;;;;;;;;;;;35.74;33.49;90912.50;5034404;28;19913;-68
2022/07/08 08:28:40;;;;;;;;;;;;;;;36.04;34.73;90907.22;5034198;28;19913;-68
2022/07/08 08:31:05;;;;;;;;;;;;;;;36.27;34.79;90903.69;5034399;28;19913;-68
2022/07/08 08:33:31;;;;;;;;;;;;;;;37.03;32.28;90907.88;5034304;28;20371;-68
2022/07/08 08:35:56;;;;;;;;;;;;;;;37.56;32.13;90906.31;5034131;28;19916;-69
2022/07/08 08:38:22;;;;;;;;;;;;;;;38.37;33.45;90905.94;5034071;28;19920;-68
2022/07/08 08:40:47;;;;;;;;;;;;;;;37.60;32.74;90912.47;5033907;28;19923;-68
2022/07/08 08:43:13;;;;;;;;;;;;;;;37.78;31.45;90915.09;5034100;28;19913;-68
2022/07/08 08:45:38;;;;;;;;;;;;;;;35.19;34.44;90901.56;5033971;28;19913;-69
2022/07/08 08:48:06;;;;;;;;;;;;;;;32.80;38.02;90912.84;5034031;28;19917;-68
2022/07/08 08:53:16;;;;;;;;;;;;;;;30.94;41.66;90890.38;5034277;28;20019;-68
2022/07/08 08:55:43;;;;;;;;;;;;;;;30.87;41.15;90892.53;5033907;28;19917;-68
2022/07/08 08:58:09;;;;;;;;;;;;;;;35.33;35.62;90886.28;5033990;28;19920;-68
2022/07/08 09:00:35;;;;;;;;;;;;;;;36.76;34.30;90878.31;5033822;28;20326;-68
2022/07/08 09:03:01;;;;;;;;;;;;;;;37.35;33.83;90889.56;5033753;28;19913;-68
2022/07/08 09:05:27;;;;;;;;;;;;;;;39.75;31.57;90883.81;5033939;28;20007;-68
2022/07/08 09:07:54;;;;;;;;;;;;;;;39.09;31.85;90883.88;5033775;28;19919;-68
2022/07/08 09:10:19;;;;;;;;;;;;;;;38.58;31.84;90883.22;5033863;28;19949;-68
2022/07/08 09:13:04;;;;;;;;;;;;;;;36.41;33.60;90880.88;5033612;28;19960;-68
2022/07/08 09:15:39;;;;;;;;;;;;;;;36.41;34.29;90874.56;5015751;28;19987;-68
2022/07/08 09:18:24;;;;;;;;;;;;;;;34.67;35.32;90866.66;5033488;28;19940;-68
2022/07/08 09:20:51;;;;;;;;;;;;;;;36.45;35.25;90867.63;5032855;28;19952;-68
2022/07/08 09:23:20;;;;;;;;;;;;;;;38.06;32.32;90868.31;5033406;28;19913;-69
2022/07/08 09:25:46;;;;;;;;;;;;;;;39.98;29.71;90868.09;5033326;28;20328;-68
2022/07/08 09:28:12;;;;;;;;;;;;;;;35.83;33.24;90870.97;5033511;28;19920;-68
2022/07/08 09:30:39;;;;;;;;;;;;;;;32.29;38.24;90863.47;5033243;28;19916;-69
2022/07/08 09:33:04;;;;;;;;;;;;;;;32.04;39.68;90858.00;5033213;28;19913;-68
2022/07/08 09:35:37;;;;;;;;;;;;;;;33.99;37.53;90858.41;5033220;28;20027;-68
2022/07/08 09:38:06;;;;;;;;;;;;;;;36.69;34.95;90862.03;5033014;28;19913;-68
2022/07/08 09:40:32;;;;;;;;;;;;;;;36.36;33.74;90859.34;5032310;28;19924;-68
2022/07/08 09:42:59;;;;;;;;;;;;;;;38.53;31.06;90872.78;5033009;28;19917;-68
2022/07/08 09:45:28;;;;;;;;;;;;;;;37.65;32.18;90857.03;5032871;28;20417;-68
2022/07/08 09:48:04;;;;;;;;;;;;;;;35.52;33.55;90851.09;5032841;28;19913;-68
2022/07/08 09:50:48;;;;;;;;;;;;;;;33.69;34.81;90857.22;5032838;28;19967;-68
2022/07/08 09:53:24;;;;;;;;;;;;;;;34.90;34.49;90857.03;5032839;28;19913;-68
2022/07/08 09:55:51;;;;;;;;;;;;;;;35.34;35.43;90852.63;5032776;28;19999;-68
2022/07/08 09:58:19;;;;;;;;;;;;;;;31.76;38.96;90857.72;5032637;28;20027;-68
2022/07/08 10:00:45;;;;;;;;;;;;;;;29.79;41.31;90860.78;5032873;28;19917;-68
2022/07/08 10:03:11;;;;;;;;;;;;;;;29.06;42.57;90834.69;5032411;28;19920;-68
2022/07/08 10:05:36;;;;;;;;;;;;;;;28.72;44.31;90841.22;5032466;28;20338;-67
2022/07/08 10:08:02;;;;;;;;;;;;;;;30.00;43.97;90840.31;5014712;28;19919;-67
2022/07/08 10:10:28;;;;;;;;;;;;;;;32.72;40.11;90842.69;5032428;28;19921;-68
2022/07/08 10:12:56;;;;;;;;;;;;;;;35.62;35.13;90850.59;5032467;28;20004;-68
2022/07/08 10:15:22;;;;;;;;;;;;;;;36.79;33.57;90849.66;5032396;28;19960;-68
2022/07/08 10:17:49;;;;;;;;;;;;;;;37.46;33.38;90852.94;5032191;28;20326;-68
2022/07/08 10:20:15;;;;;;;;;;;;;;;37.94;31.16;90839.59;5032253;28;19913;-68
2022/07/08 10:22:41;;;;;;;;;;;;;;;34.83;35.14;90833.97;5032144;28;19944;-68
2022/07/08 10:25:07;;;;;;;;;;;;;;;31.56;38.43;90832.38;5032304;28;19917;-68
2022/07/08 10:27:35;;;;;;;;;;;;;;;29.77;43.18;90824.78;5032104;28;19972;-68
2022/07/08 10:30:14;;;;;;;;;;;;;;;28.52;47.11;90826.78;5032136;28;19924;-68
2022/07/08 10:32:39;;;;;;;;;;;;;;;28.10;49.01;90826.38;5032017;28;19913;-68
2022/07/08 10:35:09;;;;;;;;;;;;;;;27.85;48.57;90834.25;5032125;28;19972;-68
2022/07/08 10:37:47;;;;;;;;;;;;;;;26.60;50.08;90829.84;5032272;28;20035;-68
2022/07/08 10:40:13;;;;;;;;;;;;;;;25.65;52.88;90822.28;5031802;28;20421;-67
2022/07/08 10:42:42;;;;;;;;;;;;;;;25.63;54.99;90824.63;5031925;28;20000;-67
2022/07/08 10:45:14;;;;;;;;;;;;;;;25.35;55.40;90826.41;5019931;28;20049;-68
2022/07/08 10:47:39;;;;;;;;;;;;;;;25.33;54.67;90828.00;4994211;28;20326;-67
2022/07/08 10:50:06;;;;;;;;;;;;;;;25.05;57.18;90835.19;5011618;28;19918;-68
2022/07/08 10:52:32;;;;;;;;;;;;;;;24.65;56.63;90844.75;5011015;28;19975;-68
2022/07/08 10:55:27;;;;;;;;;;;;;;;24.10;53.98;90850.78;5011972;28;20068;-68
2022/07/08 10:57:54;;;;;;;;;;;;;;;23.72;54.99;90848.94;5002957;28;19971;-67
2022/07/08 11:00:19;;;;;;;;;;;;;;;23.76;55.50;90845.06;5010511;28;19917;-67
2022/07/08 11:02:46;;;;;;;;;;;;;;;23.55;55.71;90859.41;5011812;28;19918;-67
2022/07/08 11:05:30;;;;;;;;;;;;;;;23.55;56.14;90862.13;5011313;28;20019;-67
2022/07/08 11:08:14;;;;;;;;;;;;;;;23.83;54.77;90853.22;5011776;28;19917;-67
2022/07/08 11:10:39;;;;;;;;;;;;;;;24.14;54.72;90848.03;5011712;28;19914;-67
2022/07/08 11:13:04;;;;;;;;;;;;;;;24.15;53.41;90850.41;5011697;28;19917;-67
2022/07/08 11:15:30;;;;;;;;;;;;;;;24.13;52.77;90850.00;5011584;28;19914;-67
2022/07/08 11:17:56;;;;;;;;;;;;;;;24.29;53.14;90851.50;5011548;28;19917;-67
2022/07/08 11:20:21;;;;;;;;;;;;;;;24.41;52.46;90840.22;5011087;28;19927;-67
2022/07/08 11:22:47;;;;;;;;;;;;;;;24.91;52.05;90834.50;5011332;28;20382;-68
2022/07/08 11:25:16;;;;;;;;;;;;;;;25.12;51.71;90834.41;5011589;28;19968;-68
2022/07/08 11:27:42;;;;;;;;;;;;;;;25.17;53.54;90822.28;5011313;28;19987;-67
2022/07/08 11:30:11;;;;;;;;;;;;;;;25.08;54.45;90825.47;4993920;28;19991;-67
2022/07/08 11:32:37;;;;;;;;;;;;;;;25.01;54.35;90811.91;5011570;28;19913;-66
2022/07/08 11:35:02;;;;;;;;;;;;;;;24.84;55.82;90812.78;5010976;28;19913;-66
2022/07/08 11:37:32;;;;;;;;;;;;;;;25.22;52.96;90806.28;5011444;28;19994;-67
2022/07/08 11:39:57;;;;;;;;;;;;;;;25.43;52.11;90799.16;5011250;28;20350;-67
2022/07/08 11:42:23;;;;;;;;;;;;;;;25.82;48.92;90796.81;5011295;28;19914;-67
2022/07/08 11:44:48;;;;;;;;;;;;;;;26.10;48.39;90794.97;5011345;28;19913;-67
2022/07/08 11:47:20;;;;;;;;;;;;;;;25.66;48.25;90788.41;5011404;28;20046;-67
2022/07/08 11:49:47;;;;;;;;;;;;;;;25.55;49.05;90802.13;5003273;28;20388;-67
2022/07/08 11:52:14;;;;;;;;;;;;;;;24.87;50.78;90792.94;5011309;28;19952;-67
2022/07/08 11:54:40;;;;;;;;;;;;;;;24.85;51.28;90798.78;5011349;28;19917;-67
2022/07/08 11:57:05;;;;;;;;;;;;;;;25.14;50.89;90793.94;5011347;28;19936;-66
2022/07/08 11:59:32;;;;;;;;;;;;;;;25.22;51.16;90798.13;5011109;28;19914;-68
2022/07/08 12:02:01;;;;;;;;;;;;;;;25.02;51.14;90797.91;5011165;28;19917;-67
2022/07/08 12:04:27;;;;;;;;;;;;;;;24.67;52.54;90807.06;5012706;28;20801;-68
2022/07/08 12:06:53;;;;;;;;;;;;;;;24.27;55.16;90824.69;5014842;28;20402;-68
2022/07/08 12:09:21;;;;;;;;;;;;;;;24.23;60.40;90823.19;5014874;28;19936;-69
2022/07/08 12:11:48;;;;;;;;;;;;;;;23.82;63.51;90818.25;5014790;28;19913;-69
2022/07/08 12:14:13;;;;;;;;;;;;;;;23.68;64.33;90804.72;5014724;28;20000;-69
2022/07/08 12:16:43;;;;;;;;;;;;;;;23.39;66.86;90812.88;5014634;28;20008;-70
2022/07/08 12:19:24;;;;;;;;;;;;;;;23.24;69.09;90817.56;5014173;28;19913;-68
2022/07/08 12:21:49;;;;;;;;;;;;;;;23.20;70.17;90819.50;5014612;28;20425;-69
2022/07/08 12:24:15;;;;;;;;;;;;;;;23.48;70.19;90820.63;5014421;28;20414;-69
2022/07/08 12:26:51;;;;;;;;;;;;;;;23.60;70.67;90821.03;5014520;28;19913;-68
2022/07/08 12:29:16;;;;;;;;;;;;;;;23.28;72.55;90828.41;5014423;28;20020;-69
2022/07/08 12:31:42;;;;;;;;;;;;;;;22.87;77.35;90830.72;5014353;28;19913;-69
2022/07/08 12:34:08;;;;;;;;;;;;;;;23.13;75.71;90840.44;5013950;28;19924;-69
2022/07/08 12:36:34;;;;;;;;;;;;;;;23.19;75.18;90839.63;5014384;28;19952;-69
2022/07/08 12:39:34;;;;;;;;;;;;;;;23.07;72.72;90839.28;5013919;28;20363;-68
2022/07/08 12:42:06;;;;;;;;;;;;;;;22.77;70.46;90831.47;4967463;28;20590;-69
2022/07/08 12:44:31;;;;;;;;;;;;;;;22.57;72.08;90836.47;5007166;28;20000;-68